TimeCDT,TemperatureF,Dew PointF,Humidity,Sea Level PressureIn,VisibilityMPH,Wind Direction,Wind SpeedMPH,Gust SpeedMPH,PrecipitationIn,Events,Conditions,WindDirDegrees,DateUTC
12:52 AM,79.0,64.9,62,29.92,10.0,South,5.8,-,N/A,,Scattered Clouds,180,2013-07-30 05:52:00
1:52 AM,81.0,61.0,50,29.90,10.0,SSE,15.0,-,N/A,,Clear,160,2013-07-30 06:52:00
2:52 AM,82.9,60.1,46,29.91,10.0,South,13.8,-,N/A,,Clear,170,2013-07-30 07:52:00
3:52 AM,82.0,62.1,51,29.91,10.0,South,16.1,23.0,N/A,,Clear,180,2013-07-30 08:52:00
4:52 AM,81.0,63.0,54,29.94,10.0,South,8.1,-,N/A,,Clear,180,2013-07-30 09:52:00
5:52 AM,80.1,68.0,67,29.93,10.0,South,16.1,24.2,N/A,,Clear,180,2013-07-30 10:52:00
6:52 AM,80.1,68.0,67,29.96,10.0,South,9.2,-,N/A,,Clear,180,2013-07-30 11:52:00
7:52 AM,79.0,68.0,69,29.97,10.0,South,13.8,19.6,N/A,,Clear,170,2013-07-30 12:52:00
8:52 AM,79.0,68.0,69,29.99,10.0,South,12.7,-,N/A,,Mostly Cloudy,170,2013-07-30 13:52:00
9:52 AM,81.0,69.1,67,30.01,10.0,South,12.7,20.7,N/A,,Clear,180,2013-07-30 14:52:00
10:52 AM,82.0,69.1,65,30.00,10.0,South,17.3,24.2,N/A,,Clear,180,2013-07-30 15:52:00
11:52 AM,87.1,70.0,57,29.99,10.0,SSW,13.8,21.9,N/A,,Clear,210,2013-07-30 16:52:00
12:52 PM,90.0,69.1,50,29.97,10.0,South,12.7,20.7,N/A,,Clear,190,2013-07-30 17:52:00
1:52 PM,91.9,68.0,45,29.95,10.0,South,12.7,24.2,N/A,,Clear,190,2013-07-30 18:52:00
2:52 PM,93.9,66.9,41,29.94,10.0,SSW,16.1,-,N/A,,Clear,200,2013-07-30 19:52:00
3:52 PM,93.9,66.9,41,29.93,10.0,SW,10.4,-,N/A,,Clear,230,2013-07-30 20:52:00
4:52 PM,95.0,66.9,40,29.92,10.0,SSW,6.9,-,N/A,,Clear,210,2013-07-30 21:52:00
5:52 PM,93.9,66.9,41,29.92,10.0,South,6.9,-,N/A,,Clear,170,2013-07-30 22:52:00
6:52 PM,93.9,66.9,41,29.91,10.0,SE,10.4,-,N/A,,Clear,140,2013-07-30 23:52:00
7:52 PM,91.0,66.9,45,29.92,10.0,SSE,8.1,-,N/A,,Clear,150,2013-07-31 00:52:00
8:52 PM,88.0,66.9,49,29.93,10.0,SE,6.9,-,N/A,,Clear,140,2013-07-31 01:52:00
9:52 PM,86.0,66.9,53,29.95,10.0,SE,4.6,-,N/A,,Clear,130,2013-07-31 02:52:00
10:52 PM,84.0,66.9,56,29.97,10.0,ESE,3.5,-,N/A,,Clear,120,2013-07-31 03:52:00
11:52 PM,84.0,64.0,51,29.96,10.0,SSE,8.1,-,N/A,,Clear,150,2013-07-31 04:52:00